Hempstead, New York
Current Conditions -  °F | °C
As of 7:51 PM on Sunday 23 Nov 2014 (Local Time) from KJFK Reporting Station
Broken Clouds Broken Clouds  
Wind Chill: 50°   Ceiling: 26000
Heat Index: 50°   Visibility: 10mi
Dew Point: 45°   Wind: 8mph
Humidity: 83%   Direction: 180°S
Pressure: 30.13"   Gusts: NA
Location:  40.71°N, 73.62°W
Report Text: KJFK 240051Z 18007KT 10SM FEW140 BKN260 10/07 A3013 RMK AO2 SLP203 T01000072 $
Loading
Personal Weather Stations






























Interactive Weather Map New forecast layout! Learn more

10-Day Weather Forecast

Advertisements
Track Severe Weather on mobile